Time;durP1;ratioP1;P1;durP2;ratioP2;P2;SDS_P1;SDS_P2;PMS_P1;PMS_P2;Temp;Humidity;BMP_temperature;BMP_pressure;BME280_temperature;BME280_humidity;BME280_pressure;Samples;Min_cycle;Max_cycle;Signal;HPM_P1;HPM_P2
2022/07/07 00:00:53;;;;;;;2.63;2.13;;;18.70;99.90;;;;;;5092831;28;20211;-86
2022/07/07 00:03:22;;;;;;;3.40;2.90;;;18.70;99.90;;;;;;5093397;28;20228;-86
2022/07/07 00:05:51;;;;;;;2.70;2.50;;;18.70;99.90;;;;;;5093075;28;20209;-86
2022/07/07 00:08:19;;;;;;;3.00;2.70;;;18.70;99.90;;;;;;5093188;28;20207;-86
2022/07/07 00:10:47;;;;;;;2.80;2.60;;;18.70;99.90;;;;;;5093395;28;20274;-86
2022/07/07 00:13:15;;;;;;;2.53;2.28;;;18.70;99.90;;;;;;5114111;28;20306;-86
2022/07/07 00:15:45;;;;;;;2.33;2.13;;;18.70;99.90;;;;;;5114083;28;20243;-86
2022/07/07 00:18:16;;;;;;;2.33;2.20;;;18.70;99.90;;;;;;5094711;28;20204;-86
2022/07/07 00:20:44;;;;;;;2.53;2.30;;;18.70;99.90;;;;;;5098581;28;20286;-86
2022/07/07 00:23:12;;;;;;;3.03;2.80;;;18.60;99.90;;;;;;5114890;28;20295;-86
2022/07/07 00:25:41;;;;;;;2.10;1.90;;;18.60;99.90;;;;;;5113186;28;20203;-86
2022/07/07 00:28:09;;;;;;;2.00;1.90;;;18.60;99.90;;;;;;5094953;28;20291;-86
2022/07/07 00:30:37;;;;;;;2.65;2.45;;;18.60;99.90;;;;;;5095503;28;20204;-86
2022/07/07 00:33:06;;;;;;;3.00;2.45;;;18.60;99.90;;;;;;5094586;28;20235;-86
2022/07/07 00:35:35;;;;;;;2.88;2.67;;;18.60;99.90;;;;;;5100799;28;20294;-86
2022/07/07 00:38:04;;;;;;;6.57;2.60;;;18.60;99.90;;;;;;5114985;28;20246;-86
2022/07/07 00:40:32;;;;;;;6.10;2.75;;;18.50;99.90;;;;;;5104631;27;20228;-86
2022/07/07 00:43:00;;;;;;;2.53;2.33;;;18.50;99.90;;;;;;5094258;28;20320;-87
2022/07/07 00:45:29;;;;;;;2.90;2.70;;;18.50;99.90;;;;;;5095518;28;20227;-86
2022/07/07 00:47:57;;;;;;;2.65;2.42;;;18.50;99.90;;;;;;5094151;28;20292;-86
2022/07/07 00:50:26;;;;;;;2.20;2.00;;;18.40;99.90;;;;;;5110795;28;20290;-86
2022/07/07 00:52:56;;;;;;;3.08;2.88;;;18.40;99.90;;;;;;5114694;28;20231;-86
2022/07/07 00:55:25;;;;;;;3.03;2.78;;;18.40;99.90;;;;;;5094443;28;20277;-86
2022/07/07 00:57:53;;;;;;;2.78;2.58;;;18.40;99.90;;;;;;5095128;28;20291;-90
2022/07/07 01:00:21;;;;;;;2.30;2.20;;;18.30;99.90;;;;;;5099011;28;20204;-86
2022/07/07 01:02:53;;;;;;;2.60;2.40;;;18.30;99.90;;;;;;5100249;28;20217;-86
2022/07/07 01:05:21;;;;;;;2.63;2.42;;;18.30;99.90;;;;;;5094347;28;20228;-86
2022/07/07 01:07:51;;;;;;;2.58;2.38;;;18.20;99.90;;;;;;5114585;28;20282;-86
2022/07/07 01:10:21;;;;;;;2.50;2.35;;;18.20;99.90;;;;;;5113857;28;20215;-86
2022/07/07 01:12:49;;;;;;;2.85;2.65;;;18.20;99.90;;;;;;5110586;28;20207;-86
2022/07/07 01:15:17;;;;;;;2.30;2.20;;;18.20;99.90;;;;;;5114086;28;20306;-85
2022/07/07 01:17:46;;;;;;;2.38;2.17;;;18.20;99.90;;;;;;5105710;28;20200;-86
2022/07/07 01:20:14;;;;;;;2.65;2.45;;;18.20;99.90;;;;;;5093386;28;20232;-86
2022/07/07 01:22:48;;;;;;;3.10;2.78;;;18.10;99.90;;;;;;5102555;28;20215;-86
2022/07/07 01:25:16;;;;;;;2.30;2.10;;;18.10;99.90;;;;;;5113872;28;20282;-86
2022/07/07 01:27:44;;;;;;;2.35;2.17;;;18.20;99.90;;;;;;5099776;28;20271;-86
2022/07/07 01:30:13;;;;;;;2.78;2.58;;;18.10;99.90;;;;;;5093535;28;20200;-86
2022/07/07 01:32:42;;;;;;;2.97;2.78;;;18.10;99.90;;;;;;5109805;28;20227;-86
2022/07/07 01:35:11;;;;;;;2.97;2.70;;;18.00;99.90;;;;;;5113858;28;20246;-86
2022/07/07 01:37:39;;;;;;;1.90;1.80;;;18.00;99.90;;;;;;5100649;28;20235;-86
2022/07/07 01:40:10;;;;;;;2.72;2.53;;;17.80;99.90;;;;;;5093551;28;20224;-86
2022/07/07 01:42:38;;;;;;;2.55;2.35;;;17.80;99.90;;;;;;5093288;28;20236;-86
2022/07/07 01:45:08;;;;;;;2.30;2.13;;;17.70;99.90;;;;;;5093721;28;20220;-86
2022/07/07 01:47:36;;;;;;;2.42;2.22;;;17.60;99.90;;;;;;5110955;28;20204;-86
2022/07/07 01:50:05;;;;;;;2.83;2.60;;;17.60;99.90;;;;;;5113781;28;20254;-86
2022/07/07 01:52:35;;;;;;;2.17;2.08;;;17.50;99.90;;;;;;5092969;28;20220;-85
2022/07/07 01:55:04;;;;;;;3.13;2.33;;;17.50;99.90;;;;;;5099880;28;20204;-86
2022/07/07 01:57:33;;;;;;;4.05;2.70;;;17.50;99.90;;;;;;5117719;28;20250;-85
2022/07/07 02:00:02;;;;;;;2.78;2.58;;;17.50;99.90;;;;;;5112729;28;20201;-85
2022/07/07 02:02:30;;;;;;;2.55;2.42;;;17.50;99.90;;;;;;5097147;28;20296;-86
2022/07/07 02:04:58;;;;;;;4.95;2.90;;;17.60;99.90;;;;;;5104989;28;20203;-86
2022/07/07 02:07:27;;;;;;;2.03;1.92;;;17.60;99.90;;;;;;5117616;28;20214;-86
2022/07/07 02:09:55;;;;;;;2.60;2.40;;;17.60;99.90;;;;;;5107772;28;20283;-86
2022/07/07 02:12:23;;;;;;;4.13;2.40;;;17.70;99.90;;;;;;5097280;28;20250;-86
2022/07/07 02:14:53;;;;;;;3.30;2.78;;;17.70;99.90;;;;;;5109834;28;20212;-86
2022/07/07 02:17:21;;;;;;;2.30;2.10;;;17.70;99.90;;;;;;5117412;28;20243;-86
2022/07/07 02:19:50;;;;;;;2.85;2.65;;;17.70;99.90;;;;;;5104449;28;20215;-86
2022/07/07 02:22:18;;;;;;;2.58;2.38;;;17.70;99.90;;;;;;5096924;28;20288;-86
2022/07/07 02:24:47;;;;;;;2.75;2.30;;;17.70;99.90;;;;;;5110618;28;20226;-85
2022/07/07 02:27:15;;;;;;;2.17;2.08;;;17.60;99.90;;;;;;5117884;27;20252;-86
2022/07/07 02:29:43;;;;;;;2.33;2.13;;;17.60;99.90;;;;;;5101766;28;20330;-86
2022/07/07 02:32:13;;;;;;;2.45;2.25;;;17.70;99.90;;;;;;5096665;28;20228;-86
2022/07/07 02:34:41;;;;;;;5.35;2.45;;;17.60;99.90;;;;;;5115911;28;20196;-86
2022/07/07 02:37:10;;;;;;;2.50;2.33;;;17.60;99.90;;;;;;5116607;27;20310;-85
2022/07/07 02:39:38;;;;;;;1.88;1.73;;;17.60;99.90;;;;;;5116559;28;20286;-86
2022/07/07 02:42:06;;;;;;;2.38;2.17;;;17.70;99.90;;;;;;5116927;28;20204;-86
2022/07/07 02:44:34;;;;;;;2.35;2.17;;;17.70;99.90;;;;;;5110703;28;20244;-86
2022/07/07 02:47:03;;;;;;;1.95;1.85;;;17.70;99.90;;;;;;5096760;28;20283;-86
2022/07/07 02:49:33;;;;;;;2.53;2.38;;;17.70;99.90;;;;;;5104362;28;20214;-85
2022/07/07 02:52:03;;;;;;;2.50;2.30;;;17.70;99.90;;;;;;5116807;28;20284;-86
2022/07/07 02:54:31;;;;;;;2.00;1.90;;;17.70;99.90;;;;;;5105723;28;20356;-86
2022/07/07 02:56:59;;;;;;;2.85;2.42;;;17.80;99.90;;;;;;5096263;28;20255;-86
2022/07/07 02:59:28;;;;;;;2.05;1.95;;;17.80;99.90;;;;;;5097165;28;20247;-85
2022/07/07 03:01:56;;;;;;;2.63;2.13;;;17.90;99.90;;;;;;5096464;28;20213;-86
2022/07/07 03:04:24;;;;;;;2.47;2.28;;;17.90;99.90;;;;;;5097398;28;20217;-86
2022/07/07 03:06:54;;;;;;;2.30;2.20;;;18.00;99.90;;;;;;5096354;28;20247;-86
2022/07/07 03:09:22;;;;;;;2.58;2.03;;;18.00;99.90;;;;;;5096773;28;20268;-86
2022/07/07 03:11:51;;;;;;;2.50;2.33;;;18.10;99.90;;;;;;5096279;28;20254;-86
2022/07/07 03:14:19;;;;;;;2.67;2.47;;;18.10;99.90;;;;;;5096325;28;20244;-86
2022/07/07 03:16:47;;;;;;;2.28;2.13;;;18.10;99.90;;;;;;5098807;28;20269;-86
2022/07/07 03:19:15;;;;;;;2.10;2.00;;;18.10;99.90;;;;;;5116575;28;20238;-85
2022/07/07 03:21:44;;;;;;;3.08;2.30;;;18.00;99.90;;;;;;5111471;28;20297;-85
2022/07/07 03:24:14;;;;;;;2.50;2.30;;;18.00;99.90;;;;;;5116293;28;20224;-86
2022/07/07 03:26:42;;;;;;;2.95;2.47;;;18.00;99.90;;;;;;5111970;28;20246;-86
2022/07/07 03:29:10;;;;;;;2.42;2.22;;;18.00;99.90;;;;;;5095592;28;20200;-85
2022/07/07 03:31:38;;;;;;;2.63;2.42;;;18.00;99.90;;;;;;5101931;28;20248;-85
2022/07/07 03:34:07;;;;;;;3.17;2.40;;;18.00;99.90;;;;;;5116430;28;20220;-86
2022/07/07 03:36:35;;;;;;;9.60;2.42;;;18.00;99.90;;;;;;5114348;28;20261;-86
2022/07/07 03:39:04;;;;;;;2.10;2.00;;;18.00;99.90;;;;;;5100720;28;20196;-86
2022/07/07 03:41:34;;;;;;;2.25;2.15;;;17.90;99.90;;;;;;5095572;28;20212;-85
2022/07/07 03:44:03;;;;;;;2.15;2.05;;;17.90;99.90;;;;;;5113321;28;20230;-85
2022/07/07 03:46:31;;;;;;;2.42;2.25;;;17.80;99.90;;;;;;5114364;27;20221;-85
2022/07/07 03:49:00;;;;;;;2.38;2.17;;;17.80;99.90;;;;;;5116146;28;20241;-85
2022/07/07 03:51:28;;;;;;;3.65;2.67;;;17.80;99.90;;;;;;5115324;28;20253;-85
2022/07/07 03:53:57;;;;;;;2.25;2.05;;;17.90;99.90;;;;;;5115614;28;20224;-85
2022/07/07 03:56:25;;;;;;;2.47;2.28;;;17.90;99.90;;;;;;5102617;28;20226;-85
2022/07/07 03:58:55;;;;;;;1.83;1.73;;;18.00;99.90;;;;;;5095244;28;20212;-85
2022/07/07 04:01:23;;;;;;;2.58;2.38;;;18.00;99.90;;;;;;5110519;28;20210;-85
2022/07/07 04:03:52;;;;;;;2.80;2.38;;;18.10;99.90;;;;;;5115697;28;20219;-85
2022/07/07 04:06:20;;;;;;;2.58;2.38;;;18.20;99.90;;;;;;5097102;28;20239;-85
2022/07/07 04:08:49;;;;;;;5.65;2.85;;;18.30;99.90;;;;;;5095178;28;20208;-86
2022/07/07 04:11:18;;;;;;;3.10;2.33;;;18.30;99.90;;;;;;5094564;28;20254;-85
2022/07/07 04:13:46;;;;;;;2.28;2.17;;;18.30;99.90;;;;;;5095583;28;20272;-85
2022/07/07 04:16:16;;;;;;;2.85;2.55;;;18.30;99.90;;;;;;5114830;28;20272;-85
2022/07/07 04:18:44;;;;;;;9.57;2.38;;;18.30;99.90;;;;;;5109333;28;20216;-86
2022/07/07 04:21:13;;;;;;;2.78;2.58;;;18.30;99.90;;;;;;5094613;28;20204;-85
2022/07/07 04:23:42;;;;;;;2.80;2.60;;;18.30;99.90;;;;;;5102171;28;20231;-85
2022/07/07 04:26:10;;;;;;;2.55;2.35;;;18.30;99.90;;;;;;5115128;28;20250;-86
2022/07/07 04:28:39;;;;;;;2.92;2.58;;;18.30;99.90;;;;;;5113704;28;20192;-85
2022/07/07 04:31:07;;;;;;;2.63;2.38;;;18.30;99.90;;;;;;5115177;28;20203;-86
2022/07/07 04:33:37;;;;;;;4.63;2.90;;;18.20;99.90;;;;;;5112294;28;20229;-86
2022/07/07 04:36:06;;;;;;;4.80;2.92;;;18.20;99.90;;;;;;5114767;28;20208;-86
2022/07/07 04:38:34;;;;;;;2.83;2.63;;;18.10;99.90;;;;;;5107463;28;20286;-85
2022/07/07 04:41:03;;;;;;;2.38;2.17;;;18.10;99.90;;;;;;5099255;28;20196;-85
2022/07/07 04:43:31;;;;;;;2.53;2.33;;;18.20;99.90;;;;;;5107880;28;20224;-85
2022/07/07 04:45:59;;;;;;;2.92;2.72;;;18.20;99.90;;;;;;5114192;27;20207;-85
2022/07/07 04:48:28;;;;;;;3.15;2.55;;;18.30;99.90;;;;;;5094135;28;20231;-86
2022/07/07 04:50:58;;;;;;;3.15;2.53;;;18.40;99.90;;;;;;5093852;28;20288;-85
2022/07/07 04:53:26;;;;;;;2.72;2.53;;;18.40;99.90;;;;;;5093827;28;20285;-89
2022/07/07 04:55:55;;;;;;;8.35;3.08;;;18.50;99.90;;;;;;5094054;28;20245;-91
2022/07/07 04:58:24;;;;;;;3.72;2.85;;;18.60;99.90;;;;;;5098582;28;20234;-86
2022/07/07 05:00:52;;;;;;;2.53;2.33;;;18.70;99.90;;;;;;5101325;27;20259;-87
2022/07/07 05:03:27;;;;;;;3.13;2.83;;;18.80;99.90;;;;;;5094316;28;20277;-86
2022/07/07 05:05:58;;;;;;;2.58;2.40;;;18.90;99.90;;;;;;5114310;28;20228;-86
2022/07/07 05:08:27;;;;;;;2.10;2.00;;;18.90;99.90;;;;;;5113681;28;20195;-84
2022/07/07 05:10:55;;;;;;;3.60;2.55;;;18.90;99.90;;;;;;5108744;28;20238;-85
2022/07/07 05:13:23;;;;;;;3.83;2.70;;;18.90;99.90;;;;;;5098550;28;20217;-85
2022/07/07 05:15:52;;;;;;;2.42;2.20;;;18.90;99.90;;;;;;5098385;28;20212;-85
2022/07/07 05:18:21;;;;;;;2.75;2.13;;;19.00;99.90;;;;;;5113573;28;20223;-86
2022/07/07 05:20:49;;;;;;;3.17;2.45;;;19.10;99.90;;;;;;5093476;28;20196;-86
2022/07/07 05:23:19;;;;;;;3.17;2.88;;;19.10;99.90;;;;;;5100668;28;20242;-86
2022/07/07 05:25:47;;;;;;;2.72;2.28;;;19.10;99.90;;;;;;5112083;28;20207;-86
2022/07/07 05:28:15;;;;;;;2.33;1.85;;;19.10;99.90;;;;;;5112268;28;20252;-86
2022/07/07 05:30:44;;;;;;;2.05;1.95;;;19.10;99.90;;;;;;5097409;28;20208;-86
2022/07/07 05:33:12;;;;;;;2.53;2.33;;;19.10;99.90;;;;;;5106522;28;20303;-86
2022/07/07 05:35:40;;;;;;;3.08;2.47;;;19.10;99.90;;;;;;5114454;28;20245;-86
2022/07/07 05:38:08;;;;;;;2.53;2.25;;;19.20;99.90;;;;;;5111467;28;20247;-85
2022/07/07 05:40:38;;;;;;;2.60;2.40;;;19.30;99.90;;;;;;5093038;28;20200;-85
2022/07/07 05:43:08;;;;;;;5.72;2.28;;;19.30;99.90;;;;;;5103249;28;20307;-84
2022/07/07 05:45:36;;;;;;;2.42;2.22;;;19.30;99.90;;;;;;5109574;28;20282;-86
2022/07/07 05:48:06;;;;;;;2.35;2.15;;;19.30;99.90;;;;;;5101457;28;20207;-86
2022/07/07 05:50:36;;;;;;;2.40;2.20;;;19.30;99.90;;;;;;5093247;28;20220;-86
2022/07/07 05:53:05;;;;;;;2.20;2.10;;;19.40;99.90;;;;;;5092928;28;20316;-85
2022/07/07 05:55:33;;;;;;;3.80;2.20;;;19.30;99.90;;;;;;5108531;28;20231;-85
2022/07/07 05:58:03;;;;;;;4.10;2.38;;;19.40;99.90;;;;;;5111598;28;20219;-92
2022/07/07 06:00:31;;;;;;;2.60;2.40;;;19.40;99.90;;;;;;5092726;28;20232;-88
2022/07/07 06:02:59;;;;;;;2.85;2.63;;;19.40;99.90;;;;;;5094199;28;20247;-84
2022/07/07 06:05:28;;;;;;;3.13;2.45;;;19.40;99.90;;;;;;5092889;28;20232;-83
2022/07/07 06:07:56;;;;;;;2.50;2.10;;;19.50;99.90;;;;;;5092195;28;20228;-84
2022/07/07 06:10:24;;;;;;;2.17;2.08;;;19.60;99.90;;;;;;5092222;28;20296;-84
2022/07/07 06:12:53;;;;;;;2.53;2.33;;;19.60;99.90;;;;;;5092468;28;20216;-83
2022/07/07 06:15:23;;;;;;;2.25;2.05;;;19.70;99.90;;;;;;5092600;28;20299;-84
2022/07/07 06:17:51;;;;;;;1.75;1.65;;;19.80;99.90;;;;;;5092916;28;20299;-83
2022/07/07 06:20:37;;;;;;;2.20;2.05;;;19.90;99.90;;;;;;5092161;28;20204;-83
2022/07/07 06:23:06;;;;;;;2.30;2.10;;;20.00;99.90;;;;;;5092132;28;20316;-83
2022/07/07 06:25:35;;;;;;;2.25;1.85;;;20.10;99.90;;;;;;5092187;28;20257;-84
2022/07/07 06:28:04;;;;;;;2.25;1.98;;;20.20;99.90;;;;;;5092723;28;20219;-84
2022/07/07 06:30:34;;;;;;;3.67;2.20;;;20.30;99.90;;;;;;5092100;28;20270;-84
2022/07/07 06:33:02;;;;;;;1.92;1.80;;;20.40;99.90;;;;;;5092369;28;20232;-84
2022/07/07 06:35:30;;;;;;;2.10;2.00;;;20.50;99.90;;;;;;5092398;28;20231;-83
2022/07/07 06:37:59;;;;;;;1.98;1.75;;;20.50;99.90;;;;;;5092006;28;20228;-84
2022/07/07 06:40:27;;;;;;;2.47;2.28;;;20.60;99.90;;;;;;5095078;28;20204;-84
2022/07/07 06:42:55;;;;;;;1.73;1.55;;;20.60;99.90;;;;;;5096033;28;20247;-84
2022/07/07 06:45:25;;;;;;;1.83;1.63;;;20.60;99.90;;;;;;5095946;28;20364;-84
2022/07/07 06:47:54;;;;;;;2.20;2.00;;;20.60;99.90;;;;;;5095818;28;20220;-84
2022/07/07 06:50:25;;;;;;;1.83;1.73;;;20.70;99.90;;;;;;5095604;28;20200;-84
2022/07/07 06:52:53;;;;;;;2.20;2.00;;;20.90;99.90;;;;;;5095602;28;20225;-84
2022/07/07 06:55:22;;;;;;;1.95;1.77;;;21.10;99.90;;;;;;5095939;28;20317;-84
2022/07/07 06:57:50;;;;;;;1.98;1.77;;;21.30;99.90;;;;;;5095941;28;20265;-84
2022/07/07 07:00:19;;;;;;;3.92;1.90;;;21.30;99.90;;;;;;5095121;28;20216;-84
2022/07/07 07:02:48;;;;;;;1.98;1.60;;;21.30;99.90;;;;;;5095399;28;20232;-84
2022/07/07 07:05:19;;;;;;;1.90;1.67;;;21.30;99.90;;;;;;5095722;28;20208;-84
2022/07/07 07:07:48;;;;;;;2.95;1.98;;;21.40;99.90;;;;;;5095470;28;20253;-84
2022/07/07 07:10:16;;;;;;;1.60;1.50;;;21.50;99.90;;;;;;5095396;28;20212;-84
2022/07/07 07:12:45;;;;;;;2.42;1.70;;;21.70;99.90;;;;;;5095088;28;20283;-84
2022/07/07 07:15:13;;;;;;;1.88;1.77;;;21.90;99.90;;;;;;5095608;28;20269;-84
2022/07/07 07:17:42;;;;;;;1.75;1.65;;;22.00;99.90;;;;;;5095466;28;20212;-84
2022/07/07 07:20:20;;;;;;;2.00;1.90;;;22.10;99.90;;;;;;5094990;28;20277;-84
2022/07/07 07:22:48;;;;;;;1.95;1.77;;;22.30;99.90;;;;;;5095069;28;20220;-84
2022/07/07 07:25:17;;;;;;;1.27;1.17;;;22.70;99.90;;;;;;5095438;28;20246;-84
2022/07/07 07:27:45;;;;;;;2.80;2.15;;;23.20;99.90;;;;;;5095276;28;20208;-84
2022/07/07 07:30:15;;;;;;;1.98;1.77;;;23.80;99.90;;;;;;5094849;28;20289;-84
2022/07/07 07:32:44;;;;;;;1.95;1.83;;;24.00;99.90;;;;;;5094962;28;20297;-84
2022/07/07 07:35:12;;;;;;;4.20;2.13;;;24.50;99.90;;;;;;5094884;28;20257;-84
2022/07/07 07:37:42;;;;;;;1.80;1.70;;;25.20;99.20;;;;;;5094948;28;20291;-84
2022/07/07 07:40:12;;;;;;;3.03;2.13;;;26.00;96.90;;;;;;5094790;28;20283;-84
2022/07/07 07:42:41;;;;;;;2.42;1.70;;;26.40;95.50;;;;;;5094662;28;20244;-85
2022/07/07 07:45:10;;;;;;;2.03;1.83;;;26.70;94.30;;;;;;5094676;28;20228;-84
2022/07/07 07:47:40;;;;;;;1.85;1.75;;;27.20;92.70;;;;;;5094503;28;20287;-84
2022/07/07 07:50:11;;;;;;;1.40;1.30;;;28.00;91.00;;;;;;5094152;28;20203;-84
2022/07/07 07:52:42;;;;;;;3.92;2.50;;;28.30;89.00;;;;;;5094032;28;20232;-85
2022/07/07 07:55:14;;;;;;;1.67;1.58;;;28.90;86.80;;;;;;5094604;28;20257;-84
2022/07/07 07:57:43;;;;;;;2.88;2.22;;;28.90;84.60;;;;;;5094732;28;20224;-84
2022/07/07 08:00:14;;;;;;;2.03;1.70;;;29.10;83.30;;;;;;5094145;28;20219;-84
2022/07/07 08:02:42;;;;;;;5.78;1.83;;;29.10;81.10;;;;;;5094309;28;20299;-84
2022/07/07 08:05:11;;;;;;;1.73;1.63;;;28.50;82.10;;;;;;5096361;28;20204;-87
2022/07/07 08:07:40;;;;;;;1.80;1.70;;;28.40;82.30;;;;;;5106606;28;20223;-92
2022/07/07 08:10:12;;;;;;;1.88;1.73;;;27.90;80.90;;;;;;5094808;28;20242;-92
2022/07/07 08:12:42;;;;;;;1.80;1.60;;;27.40;82.20;;;;;;5095830;28;20289;-85
2022/07/07 08:15:11;;;;;;;1.58;1.40;;;27.30;81.10;;;;;;5109000;28;20204;-85
2022/07/07 08:17:39;;;;;;;1.58;1.48;;;27.10;80.60;;;;;;5097674;28;20251;-85
2022/07/07 08:20:09;;;;;;;1.90;1.55;;;26.40;81.80;;;;;;5096060;28;20216;-85
2022/07/07 08:22:38;;;;;;;2.00;1.85;;;26.50;83.00;;;;;;5094705;28;20228;-85
2022/07/07 08:25:07;;;;;;;2.13;1.55;;;27.30;81.20;;;;;;5106472;28;20208;-85
2022/07/07 08:27:37;;;;;;;1.90;1.70;;;28.10;80.10;;;;;;5114997;28;20227;-85
2022/07/07 08:30:08;;;;;;;1.83;1.73;;;28.80;77.10;;;;;;5102452;28;20276;-85
2022/07/07 08:32:45;;;;;;;1.63;1.52;;;28.90;75.30;;;;;;5096004;28;20220;-85
2022/07/07 08:35:13;;;;;;;2.08;1.90;;;28.40;74.90;;;;;;5114180;28;20203;-84
2022/07/07 08:37:42;;;;;;;1.80;1.70;;;28.30;75.30;;;;;;5104881;28;20227;-84
2022/07/07 08:40:12;;;;;;;3.10;1.85;;;27.50;76.40;;;;;;5102733;28;20262;-87
2022/07/07 08:42:42;;;;;;;1.88;1.67;;;28.20;76.70;;;;;;5113309;28;20223;-84
2022/07/07 08:45:16;;;;;;;5.75;2.20;;;28.90;75.20;;;;;;5101516;28;20227;-85
2022/07/07 08:47:45;;;;;;;1.73;1.63;;;29.30;74.80;;;;;;5114882;28;20262;-84
2022/07/07 08:50:15;;;;;;;1.70;1.60;;;28.70;74.00;;;;;;5113429;28;20287;-85
2022/07/07 08:52:45;;;;;;;2.03;1.83;;;28.00;73.90;;;;;;5109684;28;20265;-85
2022/07/07 08:55:15;;;;;;;1.48;1.38;;;27.60;75.90;;;;;;5107896;28;20283;-84
2022/07/07 08:57:45;;;;;;;1.75;1.65;;;27.60;75.20;;;;;;5111087;28;20245;-85
2022/07/07 09:00:14;;;;;;;1.73;1.63;;;27.30;75.60;;;;;;5101254;28;20244;-85
2022/07/07 09:02:42;;;;;;;8.65;1.95;;;27.00;76.50;;;;;;5114201;28;20227;-82
2022/07/07 09:05:10;;;;;;;2.00;1.80;;;26.50;77.00;;;;;;5109386;28;20287;-85
2022/07/07 09:07:46;;;;;;;2.15;1.75;;;25.80;78.50;;;;;;5113932;28;20224;-84
2022/07/07 09:10:28;;;;;;;2.30;2.10;;;25.10;79.70;;;;;;5113978;28;20240;-85
2022/07/07 09:12:58;;;;;;;1.90;1.70;;;24.60;82.00;;;;;;5111249;28;20258;-85
2022/07/07 09:15:27;;;;;;;1.80;1.70;;;24.40;82.50;;;;;;5109669;28;20203;-88
2022/07/07 09:17:55;;;;;;;3.35;1.70;;;24.70;83.10;;;;;;5110208;28;20260;-85
2022/07/07 09:20:23;;;;;;;2.08;1.88;;;25.00;82.80;;;;;;5101642;28;20220;-87
2022/07/07 09:22:54;;;;;;;2.83;2.33;;;24.90;82.70;;;;;;5110400;28;20220;-87
2022/07/07 09:25:30;;;;;;;1.80;1.70;;;24.70;83.00;;;;;;5105945;28;20193;-78
2022/07/07 09:28:02;;;;;;;1.90;1.77;;;24.40;84.30;;;;;;5094430;28;20215;-80
2022/07/07 09:30:34;;;;;;;3.13;2.00;;;24.20;84.10;;;;;;5104493;28;20274;-80
2022/07/07 09:33:05;;;;;;;1.95;1.85;;;23.80;84.50;;;;;;5093731;28;20229;-80
2022/07/07 09:38:23;;;;;;;1.50;1.40;;;23.60;84.80;;;;;;5113941;28;20208;-80
2022/07/07 09:40:59;;;;;;;1.67;1.58;;;23.30;84.70;;;;;;5111090;28;20235;-80
2022/07/07 09:43:31;;;;;;;1.92;1.80;;;23.20;83.30;;;;;;5094136;28;20227;-80
2022/07/07 09:46:12;;;;;;;2.13;1.88;;;23.00;82.80;;;;;;5108680;28;20226;-80
2022/07/07 09:48:41;;;;;;;1.60;1.50;;;22.90;82.40;;;;;;5095617;28;20208;-80
2022/07/07 09:51:18;;;;;;;2.47;1.63;;;22.80;82.90;;;;;;5111827;28;20234;-80
2022/07/07 09:53:58;;;;;;;2.25;2.05;;;22.70;82.80;;;;;;5093458;28;20258;-80
2022/07/07 09:56:28;;;;;;;1.40;1.30;;;22.90;82.90;;;;;;5094670;28;20314;-80
2022/07/07 09:58:58;;;;;;;1.83;1.73;;;23.00;83.00;;;;;;5109249;28;20228;-80
2022/07/07 10:01:29;;;;;;;1.67;1.58;;;23.10;84.40;;;;;;5106579;28;20213;-80
2022/07/07 10:04:07;;;;;;;1.70;1.60;;;23.20;83.90;;;;;;5103714;28;20235;-80
2022/07/07 10:06:37;;;;;;;2.53;1.95;;;23.20;83.60;;;;;;5109782;28;20222;-80
2022/07/07 10:09:07;;;;;;;2.45;1.75;;;23.30;84.00;;;;;;5113949;28;20291;-80
2022/07/07 10:11:40;;;;;;;2.65;1.70;;;23.20;83.90;;;;;;5112759;28;20231;-80
2022/07/07 10:14:17;;;;;;;3.40;1.77;;;23.00;84.30;;;;;;5109332;28;20224;-86
2022/07/07 10:16:47;;;;;;;2.03;1.83;;;22.90;84.90;;;;;;5106878;28;20263;-85
2022/07/07 10:19:17;;;;;;;1.92;1.83;;;22.70;85.20;;;;;;5115421;28;20196;-85
2022/07/07 10:21:48;;;;;;;2.30;2.10;;;22.60;85.80;;;;;;5117209;28;20211;-85
2022/07/07 10:24:20;;;;;;;2.88;2.15;;;22.80;86.20;;;;;;5116710;28;20255;-85
2022/07/07 10:26:50;;;;;;;2.33;1.80;;;23.00;85.80;;;;;;5117610;28;20242;-85
2022/07/07 10:29:38;;;;;;;1.63;1.52;;;23.20;85.10;;;;;;5102583;28;20200;-85
2022/07/07 10:32:08;;;;;;;1.55;1.45;;;23.20;85.50;;;;;;5096997;28;20196;-85
2022/07/07 10:34:38;;;;;;;1.75;1.58;;;23.20;84.60;;;;;;5114341;28;20250;-85
2022/07/07 10:37:08;;;;;;;2.95;1.98;;;23.20;83.90;;;;;;5117579;28;20253;-85
2022/07/07 10:39:42;;;;;;;2.05;1.88;;;23.00;84.70;;;;;;5109146;27;20371;-85
2022/07/07 10:42:44;;;;;;;2.47;1.90;;;22.90;84.90;;;;;;5096563;28;20219;-85
2022/07/07 10:45:15;;;;;;;2.10;1.90;;;22.80;85.20;;;;;;5096557;28;20208;-85
2022/07/07 10:47:43;;;;;;;1.73;1.63;;;22.70;85.60;;;;;;5096277;28;20220;-85
2022/07/07 10:50:30;;;;;;;2.15;1.67;;;22.80;86.20;;;;;;5096074;28;20200;-88
2022/07/07 10:52:59;;;;;;;1.92;1.83;;;22.90;85.60;;;;;;5096355;28;20305;-88
2022/07/07 10:56:37;;;;;;;1.98;1.88;;;22.80;85.60;;;;;;5096352;28;20261;-88
2022/07/07 10:59:05;;;;;;;6.30;1.83;;;23.00;86.20;;;;;;5096158;28;20239;-88
2022/07/07 11:01:35;;;;;;;1.80;1.70;;;22.90;85.90;;;;;;5095358;28;20260;-88
2022/07/07 11:04:04;;;;;;;2.25;1.40;;;22.70;85.90;;;;;;5096417;28;20248;-88
2022/07/07 11:07:12;;;;;;;1.90;1.80;;;22.60;86.70;;;;;;5096382;28;20196;-88
2022/07/07 11:09:59;;;;;;;2.38;1.80;;;22.60;87.10;;;;;;5096366;28;20231;-87
2022/07/07 11:12:39;;;;;;;4.05;1.98;;;23.00;87.20;;;;;;5096681;28;20288;-87
2022/07/07 11:15:35;;;;;;;2.00;1.90;;;23.20;86.40;;;;;;5115214;28;20227;-86
2022/07/07 11:18:13;;;;;;;2.10;1.92;;;23.20;86.30;;;;;;5108739;28;20257;-86
2022/07/07 11:20:58;;;;;;;1.75;1.58;;;23.30;86.70;;;;;;5115923;28;20231;-86
2022/07/07 11:23:28;;;;;;;1.70;1.60;;;23.20;87.40;;;;;;5116114;28;20302;-86
2022/07/07 11:25:58;;;;;;;1.50;1.40;;;23.30;87.50;;;;;;5115181;28;20211;-86
2022/07/07 11:28:28;;;;;;;2.58;1.65;;;23.20;84.70;;;;;;5115928;28;20234;-86
2022/07/07 11:31:04;;;;;;;1.48;1.38;;;23.20;82.30;;;;;;5115930;28;20238;-85
2022/07/07 11:33:35;;;;;;;2.50;1.25;;;22.70;80.80;;;;;;5109310;27;20238;-86
2022/07/07 11:36:15;;;;;;;1.83;1.40;;;22.50;79.20;;;;;;5095544;28;20212;-86
2022/07/07 11:38:45;;;;;;;1.63;1.08;;;22.30;79.60;;;;;;5095480;28;20227;-86
2022/07/07 11:41:13;;;;;;;1.60;1.40;;;22.10;80.20;;;;;;5094557;28;20288;-86
2022/07/07 11:43:41;;;;;;;0.80;0.80;;;21.70;79.20;;;;;;5094744;28;20267;-86
2022/07/07 11:46:09;;;;;;;0.90;0.90;;;21.50;79.70;;;;;;5094594;28;20205;-85
2022/07/07 11:48:41;;;;;;;0.80;0.80;;;21.20;80.60;;;;;;5094874;28;20204;-86
2022/07/07 11:51:10;;;;;;;1.38;1.27;;;20.90;82.20;;;;;;5094536;28;20254;-86
2022/07/07 11:53:39;;;;;;;0.93;0.93;;;20.90;83.20;;;;;;5094473;28;20225;-86
2022/07/07 11:56:07;;;;;;;0.90;0.90;;;20.80;83.80;;;;;;5098290;28;20222;-86
2022/07/07 11:58:36;;;;;;;0.93;0.93;;;20.70;83.40;;;;;;5105302;28;20204;-86
2022/07/07 12:01:19;;;;;;;1.05;1.05;;;20.70;83.20;;;;;;5115421;28;20268;-86
2022/07/07 12:03:49;;;;;;;1.13;1.13;;;20.60;84.10;;;;;;5096236;27;20248;-87
2022/07/07 12:06:17;;;;;;;1.50;1.40;;;20.70;84.80;;;;;;5096291;28;20231;-88
2022/07/07 12:08:46;;;;;;;2.95;1.48;;;20.70;85.70;;;;;;5104404;28;20259;-86
2022/07/07 12:11:14;;;;;;;1.58;1.48;;;20.70;86.60;;;;;;5101358;28;20230;-86
2022/07/07 12:13:42;;;;;;;1.73;1.30;;;20.50;87.70;;;;;;5106250;28;20223;-87
2022/07/07 12:16:12;;;;;;;2.53;1.75;;;20.40;88.90;;;;;;5114654;28;20226;-86
2022/07/07 12:18:43;;;;;;;1.10;1.10;;;20.40;89.70;;;;;;5113019;28;20283;-86
2022/07/07 12:21:15;;;;;;;1.42;1.30;;;20.30;90.00;;;;;;5111738;28;20200;-86
2022/07/07 12:23:45;;;;;;;1.67;1.58;;;20.00;90.40;;;;;;5093228;28;20250;-86
2022/07/07 12:26:16;;;;;;;1.60;1.50;;;20.00;90.80;;;;;;5100911;28;20268;-86
2022/07/07 12:28:44;;;;;;;1.40;1.30;;;19.70;91.60;;;;;;5114605;28;20204;-86
2022/07/07 12:31:17;;;;;;;1.77;1.67;;;19.60;92.00;;;;;;5113292;28;20195;-86
2022/07/07 12:33:46;;;;;;;1.45;1.35;;;19.60;92.50;;;;;;5115098;28;20216;-86
2022/07/07 12:36:17;;;;;;;2.10;1.70;;;19.60;92.90;;;;;;5107072;28;20239;-86
2022/07/07 12:38:47;;;;;;;1.52;1.40;;;19.50;93.40;;;;;;5094133;28;20258;-86
2022/07/07 12:41:26;;;;;;;1.70;1.60;;;19.40;94.10;;;;;;5095082;28;20217;-86
2022/07/07 12:43:56;;;;;;;5.55;1.73;;;19.30;94.60;;;;;;5094339;28;20307;-86
2022/07/07 12:46:35;;;;;;;1.55;1.45;;;19.30;95.20;;;;;;5110398;28;20225;-86
2022/07/07 12:49:05;;;;;;;2.17;1.63;;;19.20;95.60;;;;;;5114741;28;20200;-86
2022/07/07 12:51:35;;;;;;;2.45;1.70;;;19.10;96.10;;;;;;5100563;28;20231;-86
2022/07/07 12:54:03;;;;;;;1.83;1.73;;;18.90;96.70;;;;;;5112817;28;20240;-86
2022/07/07 12:56:32;;;;;;;2.20;2.00;;;18.90;97.10;;;;;;5108666;28;20197;-86
2022/07/07 12:59:02;;;;;;;1.80;1.70;;;19.00;97.40;;;;;;5093675;28;20208;-86
2022/07/07 13:01:30;;;;;;;1.95;1.85;;;19.00;97.70;;;;;;5093888;28;20273;-86
2022/07/07 13:03:59;;;;;;;3.10;2.28;;;18.80;98.10;;;;;;5094102;28;20231;-86
2022/07/07 13:06:28;;;;;;;1.75;1.65;;;18.70;99.10;;;;;;5093813;28;20227;-86